Time;durP1;ratioP1;P1;durP2;ratioP2;P2;SDS_P1;SDS_P2;PMS_P1;PMS_P2;Temp;Humidity;BMP_temperature;BMP_pressure;BME280_temperature;BME280_humidity;BME280_pressure;Samples;Min_cycle;Max_cycle;Signal;HPM_P1;HPM_P2
2022/04/16 00:01:24;;;;;;;2.75;2.55;;;9.40;99.40;;;;;;5034501;28;20229;-90
2022/04/16 00:03:51;;;;;;;2.85;2.40;;;9.40;99.40;;;;;;5034387;28;20611;-91
2022/04/16 00:06:19;;;;;;;3.45;2.33;;;9.40;99.20;;;;;;5035186;28;20198;-91
2022/04/16 00:08:46;;;;;;;2.88;2.60;;;9.40;99.30;;;;;;5037796;28;20201;-90
2022/04/16 00:11:12;;;;;;;2.78;2.58;;;9.40;99.20;;;;;;5039396;28;20204;-91
2022/04/16 00:13:40;;;;;;;3.90;2.63;;;9.40;99.40;;;;;;5041081;28;20431;-91
2022/04/16 00:16:07;;;;;;;3.17;2.65;;;9.30;99.30;;;;;;5039766;28;20205;-90
2022/04/16 00:18:34;;;;;;;3.15;2.38;;;9.30;99.30;;;;;;5038721;28;20581;-91
2022/04/16 00:21:04;;;;;;;2.58;2.38;;;9.20;99.40;;;;;;5042813;28;20205;-90
2022/04/16 00:23:32;;;;;;;2.40;2.20;;;9.20;99.40;;;;;;5047978;28;20198;-91
2022/04/16 00:26:00;;;;;;;4.43;2.80;;;9.10;99.40;;;;;;5056681;28;20196;-91
2022/04/16 00:28:27;;;;;;;4.65;2.78;;;9.10;99.60;;;;;;5056723;28;20185;-90
2022/04/16 00:30:55;;;;;;;3.08;2.78;;;9.10;99.40;;;;;;5056389;28;20498;-91
2022/04/16 00:33:23;;;;;;;2.45;2.25;;;9.10;99.50;;;;;;5056676;28;20182;-91
2022/04/16 00:35:49;;;;;;;3.15;2.20;;;9.00;99.40;;;;;;5092237;22;20236;-95
2022/04/16 00:38:17;;;;;;;2.53;2.33;;;9.00;99.40;;;;;;5055734;28;20229;-95
2022/04/16 00:40:45;;;;;;;3.47;2.20;;;8.90;99.50;;;;;;5056213;28;20194;-94
2022/04/16 00:43:21;;;;;;;2.67;2.33;;;8.90;99.30;;;;;;5056508;28;20201;-95
2022/04/16 00:45:48;;;;;;;3.15;2.63;;;8.80;99.10;;;;;;5056169;28;20222;-94
2022/04/16 00:48:15;;;;;;;2.13;1.92;;;8.80;99.20;;;;;;5056173;28;20202;-94
2022/04/16 00:50:43;;;;;;;2.78;2.55;;;8.80;99.20;;;;;;5056404;28;20208;-95
2022/04/16 00:53:12;;;;;;;2.60;2.40;;;8.70;99.10;;;;;;5056185;28;20236;-93
2022/04/16 00:55:39;;;;;;;2.20;2.00;;;8.70;99.10;;;;;;5055873;28;20273;-93
2022/04/16 00:58:08;;;;;;;2.50;2.30;;;8.70;99.10;;;;;;5056031;28;20209;-95
2022/04/16 01:00:35;;;;;;;3.20;2.90;;;8.70;99.10;;;;;;5056394;28;20186;-94
2022/04/16 01:03:02;;;;;;;3.15;2.60;;;8.70;99.10;;;;;;5055933;28;20217;-93
2022/04/16 01:05:29;;;;;;;2.70;2.22;;;8.60;99.00;;;;;;5056183;28;20500;-94
2022/04/16 01:07:58;;;;;;;2.78;2.38;;;8.60;99.00;;;;;;5056749;28;20182;-93
2022/04/16 01:10:27;;;;;;;2.42;2.20;;;8.60;99.10;;;;;;5059762;28;20255;-96
2022/04/16 01:12:54;;;;;;;2.88;2.67;;;8.60;99.10;;;;;;5059311;28;20198;-95
2022/04/16 01:15:23;;;;;;;2.28;2.08;;;8.60;99.20;;;;;;5059313;28;20225;-94
2022/04/16 01:17:51;;;;;;;2.80;2.60;;;8.50;99.30;;;;;;5059216;28;20213;-96
2022/04/16 01:20:19;;;;;;;2.47;2.28;;;8.50;99.30;;;;;;5058794;28;20202;-96
2022/04/16 01:22:48;;;;;;;2.33;2.13;;;8.50;99.50;;;;;;5059293;28;20213;-94
2022/04/16 01:25:15;;;;;;;2.95;2.50;;;8.40;99.60;;;;;;5059008;28;20233;-95
2022/04/16 01:27:45;;;;;;;2.45;2.25;;;8.40;99.60;;;;;;5058701;28;20202;-95
2022/04/16 01:30:14;;;;;;;2.42;2.22;;;8.40;99.60;;;;;;5058945;28;20205;-94
2022/04/16 01:32:41;;;;;;;2.75;2.50;;;8.30;99.70;;;;;;5059377;28;20194;-95
2022/04/16 01:35:09;;;;;;;3.03;2.83;;;8.30;99.70;;;;;;5059139;28;20225;-94
2022/04/16 01:37:37;;;;;;;2.45;2.22;;;8.30;99.80;;;;;;5059227;28;20209;-95
2022/04/16 01:40:07;;;;;;;3.10;2.80;;;8.20;99.90;;;;;;5058678;28;20253;-94
2022/04/16 01:42:34;;;;;;;3.97;2.50;;;8.20;99.90;;;;;;5059228;28;20212;-93
2022/04/16 01:45:01;;;;;;;3.00;2.70;;;8.20;99.90;;;;;;5059305;28;20232;-95
2022/04/16 01:47:28;;;;;;;2.78;2.55;;;8.20;99.90;;;;;;5059299;28;20186;-94
2022/04/16 01:49:55;;;;;;;2.30;1.92;;;8.10;99.90;;;;;;5059069;28;20293;-94
2022/04/16 01:52:23;;;;;;;2.83;2.55;;;8.10;99.90;;;;;;5059458;28;20209;-96
2022/04/16 01:54:50;;;;;;;3.10;2.80;;;8.10;99.90;;;;;;5059068;28;20236;-93
2022/04/16 01:57:18;;;;;;;3.85;2.30;;;8.00;99.90;;;;;;5059182;28;20242;-94
2022/04/16 01:59:46;;;;;;;2.90;2.60;;;8.00;99.90;;;;;;5058526;28;20182;-94
2022/04/16 02:02:12;;;;;;;3.42;2.90;;;8.00;99.90;;;;;;5058954;28;20375;-94
2022/04/16 02:04:39;;;;;;;5.22;3.35;;;8.00;99.90;;;;;;5058696;28;20281;-94
2022/04/16 02:07:07;;;;;;;2.75;2.55;;;8.00;99.90;;;;;;5058469;28;20202;-94
2022/04/16 02:09:33;;;;;;;3.85;2.80;;;8.00;99.90;;;;;;5057809;28;20207;-93
2022/04/16 02:12:00;;;;;;;2.50;2.30;;;8.00;99.90;;;;;;5058327;28;20224;-93
2022/04/16 02:14:29;;;;;;;2.95;2.25;;;8.00;99.90;;;;;;5058478;28;20221;-94
2022/04/16 02:16:57;;;;;;;2.55;2.35;;;8.10;99.90;;;;;;5058351;28;20192;-95
2022/04/16 02:19:24;;;;;;;2.50;2.30;;;8.10;99.90;;;;;;5057373;28;20174;-94
2022/04/16 02:21:51;;;;;;;3.58;3.28;;;8.10;99.90;;;;;;5058472;28;20197;-96
2022/04/16 02:24:18;;;;;;;2.67;2.47;;;8.20;99.90;;;;;;5057924;28;20194;-94
2022/04/16 02:26:45;;;;;;;2.70;2.50;;;8.10;99.90;;;;;;5056743;28;20253;-94
2022/04/16 02:29:12;;;;;;;3.20;2.80;;;8.10;99.90;;;;;;5057408;28;20202;-94
2022/04/16 02:31:41;;;;;;;3.58;2.60;;;8.10;99.90;;;;;;5058313;28;20212;-94
2022/04/16 02:34:10;;;;;;;2.97;2.67;;;8.00;99.90;;;;;;5058278;28;20229;-94
2022/04/16 02:36:37;;;;;;;2.90;2.70;;;7.90;99.90;;;;;;5058145;28;20240;-94
2022/04/16 02:39:05;;;;;;;3.05;2.10;;;7.80;99.90;;;;;;5058116;28;20226;-93
2022/04/16 02:41:31;;;;;;;2.60;2.40;;;7.70;99.90;;;;;;5058453;28;20201;-93
2022/04/16 02:43:58;;;;;;;2.40;2.10;;;7.60;99.90;;;;;;5057783;28;20213;-93
2022/04/16 02:49:12;;;;;;;2.95;2.55;;;7.40;99.90;;;;;;5057622;28;20184;-94
2022/04/16 02:51:39;;;;;;;2.85;2.55;;;7.20;99.90;;;;;;5057919;28;20204;-94
2022/04/16 02:54:06;;;;;;;3.17;2.70;;;7.00;99.90;;;;;;5057119;28;20193;-95
2022/04/16 02:56:33;;;;;;;2.50;2.30;;;6.90;99.90;;;;;;5055939;28;20286;-95
2022/04/16 02:59:00;;;;;;;2.70;2.50;;;6.80;99.90;;;;;;5055872;28;20221;-94
2022/04/16 03:01:26;;;;;;;2.65;2.45;;;6.70;99.90;;;;;;5057455;28;20219;-95
2022/04/16 03:03:53;;;;;;;2.85;2.65;;;6.70;99.90;;;;;;5057046;28;20201;-95
2022/04/16 03:06:21;;;;;;;3.08;2.72;;;6.70;99.90;;;;;;5056685;28;20357;-95
2022/04/16 03:08:48;;;;;;;2.92;2.60;;;6.60;99.90;;;;;;5055524;28;20185;-94
2022/04/16 03:11:15;;;;;;;2.88;2.58;;;6.60;99.90;;;;;;5055846;28;20202;-94
2022/04/16 03:13:42;;;;;;;2.80;2.40;;;6.50;99.90;;;;;;5053987;28;20267;-93
2022/04/16 03:18:53;;;;;;;3.38;2.65;;;6.40;99.90;;;;;;5055656;28;20216;-94
2022/04/16 03:21:21;;;;;;;2.78;2.45;;;6.30;99.90;;;;;;5055691;28;20189;-95
2022/04/16 03:23:48;;;;;;;2.70;2.30;;;6.30;99.90;;;;;;5055914;28;20216;-94
2022/04/16 03:26:15;;;;;;;3.33;3.03;;;6.20;99.90;;;;;;5056022;28;20217;-95
2022/04/16 03:28:42;;;;;;;2.53;2.33;;;6.20;99.90;;;;;;5054604;28;20201;-94
2022/04/16 03:31:08;;;;;;;2.85;2.45;;;6.20;99.90;;;;;;5052746;28;20209;-94
2022/04/16 03:33:36;;;;;;;3.00;2.33;;;6.20;99.90;;;;;;5053177;28;20205;-93
2022/04/16 03:36:03;;;;;;;3.00;2.70;;;6.20;99.90;;;;;;5048882;28;20225;-94
2022/04/16 03:38:31;;;;;;;3.05;2.75;;;6.10;99.90;;;;;;5049679;28;20222;-95
2022/04/16 03:40:57;;;;;;;2.83;2.63;;;6.20;99.90;;;;;;5053680;28;20206;-94
2022/04/16 03:43:26;;;;;;;2.60;2.33;;;6.20;99.90;;;;;;5055373;28;20208;-94
2022/04/16 03:45:53;;;;;;;3.20;2.60;;;6.30;99.90;;;;;;5056777;28;20201;-95
2022/04/16 03:48:20;;;;;;;3.25;2.67;;;6.30;99.90;;;;;;5055051;28;20523;-94
2022/04/16 03:50:47;;;;;;;3.88;2.85;;;6.30;99.90;;;;;;5053901;28;20210;-93
2022/04/16 03:53:14;;;;;;;2.90;2.70;;;6.40;99.90;;;;;;5056554;28;20182;-93
2022/04/16 04:01:10;;;;;;;3.08;2.78;;;6.60;99.90;;;;;;5055727;28;20266;-94
2022/04/16 04:03:40;;;;;;;3.40;3.10;;;6.60;99.90;;;;;;5051070;28;20209;-95
2022/04/16 04:06:07;;;;;;;3.95;2.90;;;6.70;99.90;;;;;;5055792;28;20209;-93
2022/04/16 04:08:34;;;;;;;3.55;3.25;;;6.70;99.90;;;;;;5056578;28;20220;-95
2022/04/16 04:11:03;;;;;;;3.85;2.88;;;6.70;99.90;;;;;;5057164;28;20192;-94
2022/04/16 04:13:30;;;;;;;2.92;2.70;;;6.70;99.90;;;;;;5056627;28;20198;-92
2022/04/16 04:15:56;;;;;;;3.35;3.05;;;6.80;99.90;;;;;;5054886;28;20221;-94
2022/04/16 04:18:24;;;;;;;2.78;2.58;;;6.80;99.90;;;;;;5056600;28;20218;-96
2022/04/16 04:20:51;;;;;;;3.42;3.13;;;7.00;99.90;;;;;;5056724;28;20190;-94
2022/04/16 04:23:19;;;;;;;3.15;2.90;;;7.00;99.90;;;;;;5056713;28;20182;-94
2022/04/16 04:25:45;;;;;;;3.17;2.75;;;7.00;99.90;;;;;;5056641;28;20202;-95
2022/04/16 04:28:14;;;;;;;3.50;3.05;;;7.00;99.90;;;;;;5055173;28;20184;-96
2022/04/16 04:30:40;;;;;;;3.30;3.00;;;7.10;99.90;;;;;;5054668;28;20221;-94
2022/04/16 04:33:07;;;;;;;3.20;3.00;;;7.20;99.90;;;;;;5054602;28;20206;-94
2022/04/16 04:35:34;;;;;;;3.25;2.72;;;7.20;99.90;;;;;;5052195;28;20230;-95
2022/04/16 04:38:01;;;;;;;3.80;3.42;;;7.30;99.90;;;;;;5051308;28;20229;-93
2022/04/16 04:40:29;;;;;;;3.90;2.92;;;7.40;99.90;;;;;;5053103;28;20206;-94
2022/04/16 04:42:56;;;;;;;3.10;2.80;;;7.40;99.90;;;;;;5052271;28;20213;-93
2022/04/16 04:45:24;;;;;;;3.35;2.90;;;7.40;99.90;;;;;;5055681;28;20222;-94
2022/04/16 04:47:51;;;;;;;4.22;3.20;;;7.50;99.90;;;;;;5055896;28;20201;-96
2022/04/16 04:50:17;;;;;;;5.38;3.42;;;7.60;99.90;;;;;;5055526;28;20209;-94
2022/04/16 04:52:44;;;;;;;3.05;2.65;;;7.60;99.90;;;;;;5053736;28;20209;-94
2022/04/16 04:55:14;;;;;;;3.55;2.70;;;7.60;99.90;;;;;;5053643;28;20229;-94
2022/04/16 04:57:43;;;;;;;2.92;2.60;;;7.70;99.90;;;;;;5059126;28;20204;-94
2022/04/16 05:00:11;;;;;;;3.45;3.10;;;7.80;99.90;;;;;;5060228;28;20308;-95
2022/04/16 05:02:41;;;;;;;3.50;3.20;;;7.90;99.90;;;;;;5060391;28;20181;-94
2022/04/16 05:05:08;;;;;;;3.15;2.85;;;7.90;99.90;;;;;;5060070;28;20214;-94
2022/04/16 05:07:35;;;;;;;3.88;3.47;;;7.80;99.90;;;;;;5060430;28;20188;-93
2022/04/16 05:10:02;;;;;;;8.00;6.35;;;7.90;99.90;;;;;;5060006;28;20250;-95
2022/04/16 05:12:29;;;;;;;3.97;3.55;;;7.90;99.90;;;;;;5060457;28;20189;-94
2022/04/16 05:14:56;;;;;;;3.38;3.08;;;7.90;99.90;;;;;;5060117;28;20208;-96
2022/04/16 05:17:22;;;;;;;3.80;3.40;;;7.90;99.90;;;;;;5060372;28;20257;-94
2022/04/16 05:19:51;;;;;;;6.20;5.13;;;8.00;99.90;;;;;;5057380;28;20230;-94
2022/04/16 05:22:17;;;;;;;6.25;4.60;;;8.10;99.90;;;;;;5057022;28;20205;-94
2022/04/16 05:24:45;;;;;;;4.38;3.88;;;8.10;99.90;;;;;;5059034;28;20225;-92
2022/04/16 05:27:11;;;;;;;4.07;3.67;;;8.10;99.90;;;;;;5059519;28;20245;-94
2022/04/16 05:29:56;;;;;;;4.05;2.90;;;8.10;99.90;;;;;;5055880;28;20265;-95
2022/04/16 05:32:24;;;;;;;3.80;2.75;;;8.20;99.90;;;;;;5052735;28;20557;-95
2022/04/16 05:34:55;;;;;;;3.95;3.40;;;8.20;99.90;;;;;;5054633;28;20256;-95
2022/04/16 05:37:22;;;;;;;3.85;3.47;;;8.30;99.90;;;;;;5054933;28;20228;-95
2022/04/16 05:39:49;;;;;;;3.75;3.33;;;8.30;99.90;;;;;;5051814;28;20225;-94
2022/04/16 05:42:16;;;;;;;3.97;3.60;;;8.40;99.90;;;;;;5048469;28;20194;-95
2022/04/16 05:44:43;;;;;;;3.72;3.42;;;8.40;99.90;;;;;;5049552;28;20228;-95
2022/04/16 05:47:10;;;;;;;3.65;3.35;;;8.40;99.90;;;;;;5049239;28;20209;-94
2022/04/16 05:49:36;;;;;;;6.35;3.65;;;8.50;99.90;;;;;;5049325;28;20222;-95
2022/04/16 05:52:06;;;;;;;3.88;3.28;;;8.50;99.90;;;;;;5050000;28;20209;-94
2022/04/16 05:54:33;;;;;;;3.80;3.17;;;8.60;99.90;;;;;;5049309;28;20210;-94
2022/04/16 05:57:00;;;;;;;3.78;3.35;;;8.70;99.90;;;;;;5051042;28;20212;-95
2022/04/16 05:59:26;;;;;;;5.72;3.33;;;8.80;99.90;;;;;;5053971;28;20523;-94
2022/04/16 06:01:54;;;;;;;4.78;2.65;;;8.80;99.90;;;;;;5058676;28;20186;-94
2022/04/16 06:04:20;;;;;;;3.50;3.03;;;8.90;99.90;;;;;;5058315;28;20201;-94
2022/04/16 06:06:47;;;;;;;3.13;2.88;;;8.90;99.90;;;;;;5058926;28;20182;-94
2022/04/16 06:09:16;;;;;;;3.40;3.10;;;9.00;99.90;;;;;;5058604;28;20221;-95
2022/04/16 06:11:46;;;;;;;4.30;3.90;;;9.10;99.90;;;;;;5058976;28;20434;-93
2022/04/16 06:14:12;;;;;;;3.67;3.20;;;9.20;99.90;;;;;;5059713;28;20202;-94
2022/04/16 06:16:39;;;;;;;4.20;3.30;;;9.30;99.90;;;;;;5059025;28;20210;-94
2022/04/16 06:19:06;;;;;;;3.50;3.20;;;9.30;99.90;;;;;;5055721;28;20202;-93
2022/04/16 06:21:33;;;;;;;4.30;3.83;;;9.30;99.90;;;;;;5054672;28;20202;-95
2022/04/16 06:24:00;;;;;;;3.85;3.20;;;9.30;99.90;;;;;;5051683;28;20193;-93
2022/04/16 06:26:28;;;;;;;3.80;3.50;;;9.40;99.90;;;;;;5045962;28;20228;-94
2022/04/16 06:28:55;;;;;;;3.90;3.40;;;9.40;99.90;;;;;;5049490;28;20198;-94
2022/04/16 06:31:23;;;;;;;4.82;3.67;;;9.40;99.90;;;;;;5048773;28;20206;-94
2022/04/16 06:33:49;;;;;;;3.70;3.40;;;9.40;99.90;;;;;;5045938;28;20205;-94
2022/04/16 06:36:16;;;;;;;4.32;3.22;;;9.40;99.90;;;;;;5057002;22;20230;-69
2022/04/16 06:38:43;;;;;;;3.60;3.30;;;9.40;99.90;;;;;;5031229;28;20703;-70
2022/04/16 06:41:09;;;;;;;4.07;3.55;;;9.40;99.90;;;;;;5031820;28;20616;-72
2022/04/16 06:43:37;;;;;;;4.75;3.00;;;9.40;99.90;;;;;;5031762;28;20216;-69
2022/04/16 06:46:04;;;;;;;3.95;3.55;;;9.50;99.90;;;;;;5031703;28;20258;-69
2022/04/16 06:48:31;;;;;;;3.85;3.45;;;9.60;99.90;;;;;;5031066;28;20628;-70
2022/04/16 06:50:57;;;;;;;3.97;3.58;;;9.50;99.90;;;;;;5031830;28;20210;-69
2022/04/16 06:53:26;;;;;;;4.22;3.17;;;9.60;99.90;;;;;;5031364;28;20212;-69
2022/04/16 06:55:53;;;;;;;3.85;3.55;;;9.60;99.90;;;;;;5031503;28;20202;-70
2022/04/16 06:58:20;;;;;;;4.28;3.33;;;9.60;99.90;;;;;;5030652;28;20612;-69
2022/04/16 07:00:48;;;;;;;3.70;3.40;;;9.60;99.90;;;;;;5023884;28;20217;-69
2022/04/16 07:03:14;;;;;;;3.80;3.50;;;9.60;99.90;;;;;;5020396;28;20197;-69
2022/04/16 07:05:41;;;;;;;3.45;3.15;;;9.60;99.90;;;;;;5018500;28;20214;-70
2022/04/16 07:08:08;;;;;;;6.40;4.50;;;9.60;99.90;;;;;;5020311;28;20194;-69
2022/04/16 07:10:34;;;;;;;3.55;3.25;;;9.70;99.90;;;;;;5020460;28;20195;-69
2022/04/16 07:13:01;;;;;;;3.38;3.08;;;9.70;99.90;;;;;;5019369;28;20221;-69
2022/04/16 07:15:28;;;;;;;3.83;3.40;;;9.80;99.90;;;;;;5020807;28;20210;-69
2022/04/16 07:17:56;;;;;;;3.63;3.33;;;9.70;99.90;;;;;;5020589;28;20226;-70
2022/04/16 07:20:22;;;;;;;4.25;3.85;;;9.80;99.90;;;;;;5019401;28;20221;-70
2022/04/16 07:22:49;;;;;;;4.20;3.80;;;9.80;99.90;;;;;;5022056;28;20226;-70
2022/04/16 07:25:16;;;;;;;5.40;4.50;;;9.80;99.90;;;;;;5025022;28;20195;-70
2022/04/16 07:27:43;;;;;;;4.30;3.90;;;9.80;99.90;;;;;;5020794;28;20210;-70
2022/04/16 07:30:10;;;;;;;4.65;4.05;;;9.80;99.90;;;;;;5016355;28;20221;-69
2022/04/16 07:32:38;;;;;;;5.13;3.90;;;9.80;99.90;;;;;;5018691;28;20682;-69
2022/04/16 07:35:07;;;;;;;4.43;3.55;;;9.70;99.90;;;;;;5016400;28;20198;-69
2022/04/16 07:37:33;;;;;;;4.35;3.95;;;9.80;99.90;;;;;;5019755;28;20222;-69
2022/04/16 07:40:00;;;;;;;4.90;3.70;;;9.80;99.90;;;;;;5010206;28;20201;-69
2022/04/16 07:42:27;;;;;;;3.95;3.55;;;9.80;99.90;;;;;;5010893;28;20677;-70
2022/04/16 07:44:54;;;;;;;3.95;3.55;;;10.00;99.90;;;;;;5011566;28;20260;-69
2022/04/16 07:47:21;;;;;;;5.65;4.07;;;10.00;99.90;;;;;;5011454;28;20233;-69
2022/04/16 07:49:47;;;;;;;5.22;4.70;;;10.10;99.90;;;;;;5011171;28;20226;-70
2022/04/16 07:52:15;;;;;;;4.75;4.25;;;10.10;99.90;;;;;;5011150;28;20213;-69
2022/04/16 07:54:42;;;;;;;4.32;3.83;;;10.20;99.90;;;;;;5011323;28;20221;-69
2022/04/16 07:57:09;;;;;;;5.70;4.68;;;10.20;99.90;;;;;;5011007;28;20721;-69
2022/04/16 07:59:35;;;;;;;8.35;4.45;;;10.10;99.90;;;;;;5010526;28;20614;-69
2022/04/16 08:02:02;;;;;;;8.07;5.10;;;10.10;99.90;;;;;;5011326;28;20213;-70
2022/04/16 08:04:29;;;;;;;5.18;4.32;;;10.00;99.90;;;;;;5010933;28;20256;-69
2022/04/16 08:06:55;;;;;;;5.20;4.70;;;10.10;99.90;;;;;;5010936;28;20226;-70
2022/04/16 08:09:23;;;;;;;4.13;3.72;;;10.20;99.90;;;;;;5010500;28;20225;-69
2022/04/16 08:11:50;;;;;;;5.10;4.60;;;10.20;99.90;;;;;;5011083;28;20198;-70
2022/04/16 08:14:17;;;;;;;6.30;5.07;;;10.20;99.90;;;;;;5010780;28;20213;-69
2022/04/16 08:16:43;;;;;;;7.45;4.85;;;10.30;99.90;;;;;;5011267;28;20245;-69
2022/04/16 08:19:10;;;;;;;5.53;4.68;;;10.30;99.90;;;;;;5014504;28;20202;-70
2022/04/16 08:21:37;;;;;;;4.70;4.30;;;10.30;99.90;;;;;;5014960;28;20198;-69
2022/04/16 08:24:13;;;;;;;5.72;4.72;;;10.50;99.90;;;;;;5015005;28;20685;-70
2022/04/16 08:26:41;;;;;;;5.80;5.03;;;10.60;99.90;;;;;;5014792;28;20237;-70
2022/04/16 08:29:08;;;;;;;5.55;4.60;;;10.60;99.90;;;;;;5014606;28;20684;-70
2022/04/16 08:31:35;;;;;;;7.70;4.78;;;10.70;99.90;;;;;;5014980;28;20230;-70
2022/04/16 08:34:02;;;;;;;4.85;4.28;;;10.90;99.90;;;;;;5014665;28;20217;-70
2022/04/16 08:36:29;;;;;;;5.75;5.15;;;10.90;99.90;;;;;;5014531;28;20234;-70
2022/04/16 08:38:55;;;;;;;5.20;4.70;;;10.90;99.90;;;;;;5014397;28;20620;-70
2022/04/16 08:41:25;;;;;;;6.55;5.50;;;11.00;99.90;;;;;;5014636;28;20464;-70
2022/04/16 08:43:54;;;;;;;6.10;5.50;;;11.00;99.80;;;;;;5014595;28;20207;-71
2022/04/16 08:46:21;;;;;;;6.38;4.85;;;11.10;99.80;;;;;;5014297;28;20295;-70
2022/04/16 08:48:49;;;;;;;5.43;4.93;;;11.20;99.90;;;;;;5013662;28;20211;-70
2022/04/16 08:51:17;;;;;;;5.03;4.47;;;11.20;99.80;;;;;;5014798;28;20857;-70
2022/04/16 08:53:43;;;;;;;5.88;5.00;;;11.50;99.90;;;;;;5014521;28;20206;-69
2022/04/16 08:56:10;;;;;;;6.43;4.95;;;11.70;99.40;;;;;;5014355;28;20592;-70
2022/04/16 08:58:37;;;;;;;5.87;5.10;;;11.90;99.70;;;;;;5013617;28;20209;-70
2022/04/16 09:01:05;;;;;;;5.33;4.83;;;12.00;98.60;;;;;;5014446;28;20457;-71
2022/04/16 09:03:33;;;;;;;7.13;4.60;;;12.00;98.60;;;;;;5013959;28;20461;-70
2022/04/16 09:06:00;;;;;;;6.90;5.20;;;12.20;98.90;;;;;;5014191;28;20457;-70
2022/04/16 09:08:30;;;;;;;6.10;5.37;;;12.60;98.60;;;;;;5013465;28;20467;-70
2022/04/16 09:11:07;;;;;;;6.10;5.30;;;12.90;98.40;;;;;;5014155;28;20480;-70
2022/04/16 09:13:34;;;;;;;6.57;5.03;;;13.00;97.40;;;;;;5013791;28;20463;-69
2022/04/16 09:16:06;;;;;;;6.17;5.57;;;13.00;96.70;;;;;;5013897;28;20461;-70
2022/04/16 09:18:45;;;;;;;6.60;5.10;;;12.90;97.80;;;;;;5012784;28;20460;-70
2022/04/16 09:21:13;;;;;;;5.40;4.87;;;12.90;97.90;;;;;;5013796;28;20476;-70
2022/04/16 09:23:47;;;;;;;5.23;4.57;;;12.60;97.90;;;;;;5013679;28;20500;-69
2022/04/16 09:26:14;;;;;;;7.20;5.63;;;12.50;97.70;;;;;;5011560;28;20481;-70
2022/04/16 09:28:44;;;;;;;6.10;5.50;;;12.40;97.40;;;;;;5009854;28;20474;-70
2022/04/16 09:31:12;;;;;;;6.30;5.70;;;12.20;97.80;;;;;;5014843;28;20578;-70
2022/04/16 09:33:41;;;;;;;5.83;5.23;;;12.00;98.30;;;;;;5030571;28;20475;-70
2022/04/16 09:36:07;;;;;;;6.37;5.73;;;11.90;98.00;;;;;;5030901;28;20527;-69
2022/04/16 09:38:35;;;;;;;7.27;6.13;;;11.80;98.80;;;;;;5030794;28;20464;-70
2022/04/16 09:41:05;;;;;;;9.00;6.10;;;11.50;98.90;;;;;;5030702;28;20851;-70
2022/04/16 09:43:36;;;;;;;7.00;5.80;;;11.50;99.30;;;;;;5030507;28;20568;-70
2022/04/16 09:46:11;;;;;;;7.13;6.37;;;11.50;99.60;;;;;;5030393;28;20910;-70
2022/04/16 09:48:39;;;;;;;8.03;5.93;;;11.50;99.40;;;;;;5030223;28;20533;-70
2022/04/16 09:51:06;;;;;;;6.97;6.18;;;11.30;99.40;;;;;;5030825;28;20492;-70
2022/04/16 09:53:37;;;;;;;7.13;6.03;;;11.20;99.40;;;;;;5030862;28;20209;-69
2022/04/16 09:56:11;;;;;;;7.53;5.82;;;11.20;99.20;;;;;;5030568;28;20538;-70
2022/04/16 09:58:40;;;;;;;7.37;5.70;;;11.30;99.90;;;;;;5029982;28;20260;-70
2022/04/16 10:01:10;;;;;;;6.78;6.07;;;11.20;99.30;;;;;;5031046;28;20518;-69
2022/04/16 10:03:39;;;;;;;7.22;5.63;;;11.20;99.10;;;;;;5030797;28;20221;-70
2022/04/16 10:06:07;;;;;;;7.80;6.63;;;11.30;99.00;;;;;;5031114;28;20226;-70
2022/04/16 10:08:36;;;;;;;6.57;5.95;;;11.30;99.00;;;;;;5030191;28;20259;-70
2022/04/16 10:11:04;;;;;;;7.47;6.15;;;11.40;99.20;;;;;;5030270;28;20228;-71
2022/04/16 10:13:37;;;;;;;6.87;6.17;;;11.30;99.10;;;;;;5030138;28;20205;-70
2022/04/16 10:16:10;;;;;;;7.78;5.88;;;11.40;99.40;;;;;;5030013;28;20480;-70
2022/04/16 10:18:38;;;;;;;7.57;5.97;;;11.40;99.20;;;;;;5029654;28;20201;-69
2022/04/16 10:21:14;;;;;;;8.65;6.20;;;11.50;99.10;;;;;;5029835;28;20456;-69
2022/04/16 10:23:41;;;;;;;5.43;4.93;;;11.80;99.40;;;;;;5029740;28;20229;-69
2022/04/16 10:26:10;;;;;;;5.83;5.03;;;12.00;98.70;;;;;;5029736;28;20488;-71
2022/04/16 10:28:39;;;;;;;7.07;5.63;;;12.30;98.50;;;;;;5028864;28;20471;-71
2022/04/16 10:31:07;;;;;;;8.23;5.67;;;12.40;98.20;;;;;;5029402;28;20492;-71
2022/04/16 10:33:34;;;;;;;6.10;5.50;;;12.90;97.30;;;;;;5029033;28;21282;-71
2022/04/16 10:36:03;;;;;;;7.00;5.07;;;13.20;96.50;;;;;;5029058;28;20476;-71
2022/04/16 10:38:36;;;;;;;6.00;5.00;;;13.30;96.10;;;;;;5028136;28;20960;-71
2022/04/16 10:41:10;;;;;;;5.70;5.20;;;13.40;96.30;;;;;;5028528;28;20838;-70
2022/04/16 10:43:37;;;;;;;5.43;4.67;;;13.30;95.20;;;;;;5028742;28;20468;-71
2022/04/16 10:46:05;;;;;;;5.87;5.27;;;13.30;95.60;;;;;;5028809;28;20492;-71
2022/04/16 10:48:37;;;;;;;5.97;4.83;;;13.20;95.20;;;;;;5028182;28;20511;-71
2022/04/16 10:51:06;;;;;;;5.53;4.90;;;13.10;95.80;;;;;;5028861;28;20495;-71
2022/04/16 10:53:34;;;;;;;6.30;5.70;;;12.90;95.30;;;;;;5028673;28;20460;-71
2022/04/16 10:56:14;;;;;;;5.87;4.97;;;12.70;95.40;;;;;;5028613;28;21003;-71
2022/04/16 10:58:42;;;;;;;7.57;6.40;;;12.50;96.30;;;;;;5028379;28;20819;-71
2022/04/16 11:01:10;;;;;;;6.93;6.17;;;12.50;96.40;;;;;;5028890;28;20460;-71
2022/04/16 11:03:45;;;;;;;6.50;5.90;;;12.50;96.30;;;;;;5028927;28;20464;-69
2022/04/16 11:06:14;;;;;;;7.00;5.87;;;12.50;96.40;;;;;;5029474;28;20484;-71
2022/04/16 11:08:42;;;;;;;5.87;5.30;;;12.60;96.40;;;;;;5028153;28;21410;-71
2022/04/16 11:11:10;;;;;;;6.87;6.27;;;12.70;96.90;;;;;;5028658;28;20558;-69
2022/04/16 11:13:39;;;;;;;6.63;5.60;;;13.00;95.60;;;;;;5028661;28;20487;-69
2022/04/16 11:16:06;;;;;;;6.10;5.17;;;13.30;95.70;;;;;;5028385;28;20486;-72
2022/04/16 11:18:41;;;;;;;5.90;5.30;;;13.50;95.30;;;;;;5027901;28;20487;-69
2022/04/16 11:21:09;;;;;;;6.33;5.40;;;13.50;94.30;;;;;;5028692;28;20836;-69
2022/04/16 11:23:45;;;;;;;6.10;5.50;;;13.40;95.00;;;;;;5028140;28;20471;-69
2022/04/16 11:34:31;;;;;;;6.17;5.33;;;13.60;94.90;;;;;;5028107;28;20443;-69
2022/04/16 11:36:59;;;;;;;5.20;4.70;;;13.80;94.20;;;;;;5027966;28;20492;-69
2022/04/16 11:39:30;;;;;;;5.30;4.70;;;13.90;94.50;;;;;;5027439;28;20587;-70
2022/04/16 11:41:57;;;;;;;5.67;5.10;;;14.20;93.50;;;;;;5028164;28;20475;-70
2022/04/16 11:44:38;;;;;;;5.30;4.77;;;14.10;93.30;;;;;;5027766;28;20472;-69
2022/04/16 11:47:08;;;;;;;5.40;4.90;;;14.10;92.90;;;;;;5028210;28;20498;-70
2022/04/16 11:49:36;;;;;;;5.30;4.80;;;14.40;93.40;;;;;;5027291;28;20836;-71
2022/04/16 11:52:03;;;;;;;5.17;4.67;;;14.70;93.60;;;;;;5027957;28;20464;-72
2022/04/16 11:54:31;;;;;;;3.97;3.57;;;14.80;91.70;;;;;;5027791;28;20811;-70
2022/04/16 11:56:58;;;;;;;5.20;4.53;;;15.00;92.00;;;;;;5028310;28;21023;-71
2022/04/16 11:59:26;;;;;;;5.47;4.50;;;15.30;91.40;;;;;;5027858;28;20948;-71
2022/04/16 12:02:04;;;;;;;5.20;4.70;;;15.30;91.00;;;;;;5028399;28;20460;-70
2022/04/16 12:04:39;;;;;;;5.03;4.50;;;15.40;90.90;;;;;;5028112;28;20464;-70
2022/04/16 12:07:14;;;;;;;5.67;4.40;;;15.40;91.30;;;;;;5027855;28;20476;-70
2022/04/16 12:09:49;;;;;;;5.50;4.13;;;15.30;90.90;;;;;;5027165;28;20468;-70
2022/04/16 12:12:17;;;;;;;5.13;4.43;;;15.20;91.30;;;;;;5027867;28;20472;-71
2022/04/16 12:14:49;;;;;;;5.80;4.80;;;15.10;91.30;;;;;;5027560;28;20522;-71
2022/04/16 12:17:26;;;;;;;4.73;4.27;;;15.10;91.10;;;;;;5027580;28;20484;-71
2022/04/16 12:20:05;;;;;;;5.23;4.70;;;15.60;91.20;;;;;;5027462;28;20675;-71
2022/04/16 12:22:32;;;;;;;5.10;4.60;;;16.50;89.20;;;;;;5027728;28;20518;-71
2022/04/16 12:25:10;;;;;;;5.87;4.80;;;16.80;89.40;;;;;;5027663;28;20472;-71
2022/04/16 12:27:36;;;;;;;6.23;4.47;;;16.80;87.40;;;;;;5027376;28;20483;-71
2022/04/16 12:30:04;;;;;;;4.97;4.33;;;16.50;87.70;;;;;;5026927;28;20472;-71
2022/04/16 12:32:31;;;;;;;4.07;3.70;;;16.40;89.00;;;;;;5027479;28;20464;-71
2022/04/16 12:34:58;;;;;;;5.03;4.50;;;17.30;88.40;;;;;;5027629;28;20468;-71
2022/04/16 12:37:25;;;;;;;4.93;4.43;;;18.40;86.30;;;;;;5027689;28;20571;-71
2022/04/16 12:39:51;;;;;;;6.00;5.13;;;18.90;83.00;;;;;;5027448;28;20530;-71
2022/04/16 12:42:19;;;;;;;8.10;5.00;;;18.50;82.90;;;;;;5028392;28;20471;-70
2022/04/16 12:44:46;;;;;;;5.80;4.97;;;17.90;81.80;;;;;;5028463;28;20473;-71
2022/04/16 12:47:13;;;;;;;6.40;4.70;;;17.60;84.60;;;;;;5027472;28;20854;-70
2022/04/16 12:49:40;;;;;;;5.33;4.87;;;17.20;85.60;;;;;;5027181;28;20460;-70
2022/04/16 12:52:08;;;;;;;6.03;5.47;;;17.10;83.20;;;;;;5027734;28;20527;-70
2022/04/16 12:54:35;;;;;;;6.20;5.60;;;17.50;82.70;;;;;;5027704;28;20490;-71
2022/04/16 12:57:02;;;;;;;5.40;4.60;;;17.80;81.50;;;;;;5027419;28;20484;-70
2022/04/16 12:59:30;;;;;;;6.17;5.57;;;17.70;82.00;;;;;;5026864;28;20467;-70
2022/04/16 13:01:57;;;;;;;5.10;4.60;;;17.40;82.10;;;;;;5027920;28;20460;-71
2022/04/16 13:04:24;;;;;;;9.60;5.10;;;17.30;82.20;;;;;;5028899;28;20464;-70
2022/04/16 13:06:51;;;;;;;5.07;4.57;;;17.40;82.70;;;;;;5031237;28;20945;-71
2022/04/16 13:09:18;;;;;;;5.23;4.70;;;18.30;80.50;;;;;;5030634;28;20979;-70
2022/04/16 13:11:46;;;;;;;4.87;4.47;;;19.00;79.50;;;;;;5031404;28;20492;-71
2022/04/16 13:14:13;;;;;;;4.27;3.87;;;19.00;77.40;;;;;;5031392;28;20466;-71
2022/04/16 13:16:41;;;;;;;5.40;4.63;;;19.00;79.60;;;;;;5031062;28;20858;-71